sensor_id;sensor_type;location;lat;lon;timestamp;P1;durP1;ratioP1;P2;durP2;ratioP2
9880;SDS011;4979;51.014;6.678;2022-08-04T00:01:44;2.88;;;1.50;;
9880;SDS011;4979;51.014;6.678;2022-08-04T00:04:21;6.25;;;1.83;;
9880;SDS011;4979;51.014;6.678;2022-08-04T00:07:18;4.00;;;1.60;;
9880;SDS011;4979;51.014;6.678;2022-08-04T00:09:50;1.55;;;1.42;;
9880;SDS011;4979;51.014;6.678;2022-08-04T00:12:21;5.93;;;1.92;;
9880;SDS011;4979;51.014;6.678;2022-08-04T00:14:50;6.53;;;1.70;;
9880;SDS011;4979;51.014;6.678;2022-08-04T00:17:23;3.42;;;1.60;;
9880;SDS011;4979;51.014;6.678;2022-08-04T00:19:54;3.67;;;1.58;;
9880;SDS011;4979;51.014;6.678;2022-08-04T00:22:25;4.30;;;1.55;;
9880;SDS011;4979;51.014;6.678;2022-08-04T00:24:54;3.60;;;2.00;;
9880;SDS011;4979;51.014;6.678;2022-08-04T00:27:20;4.38;;;1.60;;
9880;SDS011;4979;51.014;6.678;2022-08-04T00:29:46;2.22;;;1.70;;
9880;SDS011;4979;51.014;6.678;2022-08-04T00:32:12;4.85;;;1.60;;
9880;SDS011;4979;51.014;6.678;2022-08-04T00:34:38;4.80;;;1.48;;
9880;SDS011;4979;51.014;6.678;2022-08-04T00:37:05;4.20;;;1.88;;
9880;SDS011;4979;51.014;6.678;2022-08-04T00:39:31;7.80;;;2.20;;
9880;SDS011;4979;51.014;6.678;2022-08-04T00:50:40;3.65;;;1.70;;
9880;SDS011;4979;51.014;6.678;2022-08-04T01:01:50;5.07;;;1.70;;
9880;SDS011;4979;51.014;6.678;2022-08-04T01:04:19;6.43;;;1.80;;
9880;SDS011;4979;51.014;6.678;2022-08-04T01:07:14;6.00;;;2.08;;
9880;SDS011;4979;51.014;6.678;2022-08-04T01:10:18;4.35;;;1.73;;
9880;SDS011;4979;51.014;6.678;2022-08-04T01:16:08;3.95;;;1.70;;
9880;SDS011;4979;51.014;6.678;2022-08-04T01:27:17;6.30;;;2.10;;
9880;SDS011;4979;51.014;6.678;2022-08-04T01:30:12;4.13;;;2.03;;
9880;SDS011;4979;51.014;6.678;2022-08-04T01:32:40;6.63;;;2.00;;
9880;SDS011;4979;51.014;6.678;2022-08-04T01:37:58;4.35;;;1.77;;
9880;SDS011;4979;51.014;6.678;2022-08-04T01:40:37;2.75;;;1.50;;
9880;SDS011;4979;51.014;6.678;2022-08-04T01:43:06;4.25;;;1.80;;
9880;SDS011;4979;51.014;6.678;2022-08-04T01:45:34;2.40;;;1.60;;
9880;SDS011;4979;51.014;6.678;2022-08-04T01:48:02;4.68;;;2.03;;
9880;SDS011;4979;51.014;6.678;2022-08-04T01:50:30;3.53;;;2.30;;
9880;SDS011;4979;51.014;6.678;2022-08-04T01:52:59;1.90;;;1.70;;
9880;SDS011;4979;51.014;6.678;2022-08-04T01:55:26;3.17;;;1.85;;
9880;SDS011;4979;51.014;6.678;2022-08-04T01:57:53;3.30;;;2.00;;
9880;SDS011;4979;51.014;6.678;2022-08-04T02:00:26;8.27;;;2.05;;
9880;SDS011;4979;51.014;6.678;2022-08-04T02:02:53;4.80;;;2.20;;
9880;SDS011;4979;51.014;6.678;2022-08-04T02:05:21;6.57;;;2.17;;
9880;SDS011;4979;51.014;6.678;2022-08-04T02:08:07;5.70;;;2.40;;
9880;SDS011;4979;51.014;6.678;2022-08-04T02:10:54;2.72;;;1.67;;
9880;SDS011;4979;51.014;6.678;2022-08-04T02:19:07;1.80;;;1.70;;
9880;SDS011;4979;51.014;6.678;2022-08-04T02:22:02;5.68;;;1.90;;
9880;SDS011;4979;51.014;6.678;2022-08-04T02:24:32;6.72;;;1.73;;
9880;SDS011;4979;51.014;6.678;2022-08-04T02:27:06;3.88;;;1.45;;
9880;SDS011;4979;51.014;6.678;2022-08-04T02:32:12;4.13;;;1.98;;
9880;SDS011;4979;51.014;6.678;2022-08-04T02:34:56;5.53;;;2.33;;
9880;SDS011;4979;51.014;6.678;2022-08-04T02:37:30;4.78;;;2.35;;
9880;SDS011;4979;51.014;6.678;2022-08-04T02:39:58;3.92;;;1.90;;
9880;SDS011;4979;51.014;6.678;2022-08-04T02:42:25;6.20;;;2.05;;
9880;SDS011;4979;51.014;6.678;2022-08-04T02:44:53;4.88;;;2.08;;
9880;SDS011;4979;51.014;6.678;2022-08-04T02:47:22;3.67;;;1.88;;
9880;SDS011;4979;51.014;6.678;2022-08-04T02:49:50;6.78;;;2.00;;
9880;SDS011;4979;51.014;6.678;2022-08-04T02:52:17;5.40;;;1.90;;
9880;SDS011;4979;51.014;6.678;2022-08-04T02:54:43;3.25;;;2.10;;
9880;SDS011;4979;51.014;6.678;2022-08-04T02:57:12;4.70;;;2.00;;
9880;SDS011;4979;51.014;6.678;2022-08-04T02:59:47;2.72;;;1.63;;
9880;SDS011;4979;51.014;6.678;2022-08-04T03:02:27;4.47;;;1.75;;
9880;SDS011;4979;51.014;6.678;2022-08-04T03:05:12;4.85;;;2.25;;
9880;SDS011;4979;51.014;6.678;2022-08-04T03:21:12;9.13;;;2.35;;
9880;SDS011;4979;51.014;6.678;2022-08-04T03:40:08;3.75;;;2.55;;
9880;SDS011;4979;51.014;6.678;2022-08-04T03:43:00;5.35;;;2.70;;
9880;SDS011;4979;51.014;6.678;2022-08-04T03:57:53;4.95;;;2.47;;
9880;SDS011;4979;51.014;6.678;2022-08-04T04:00:46;2.88;;;2.13;;
9880;SDS011;4979;51.014;6.678;2022-08-04T04:03:44;6.72;;;2.67;;
9880;SDS011;4979;51.014;6.678;2022-08-04T04:14:47;6.43;;;2.58;;
9880;SDS011;4979;51.014;6.678;2022-08-04T04:26:06;7.32;;;2.65;;
9880;SDS011;4979;51.014;6.678;2022-08-04T04:29:07;3.03;;;2.28;;
9880;SDS011;4979;51.014;6.678;2022-08-04T04:34:30;4.32;;;1.88;;
9880;SDS011;4979;51.014;6.678;2022-08-04T04:42:37;7.50;;;2.45;;
9880;SDS011;4979;51.014;6.678;2022-08-04T04:47:54;4.85;;;2.10;;
9880;SDS011;4979;51.014;6.678;2022-08-04T04:53:44;6.07;;;2.08;;
9880;SDS011;4979;51.014;6.678;2022-08-04T04:56:40;4.07;;;2.03;;
9880;SDS011;4979;51.014;6.678;2022-08-04T04:59:14;7.80;;;2.45;;
9880;SDS011;4979;51.014;6.678;2022-08-04T05:04:38;7.07;;;2.28;;
9880;SDS011;4979;51.014;6.678;2022-08-04T05:16:18;6.65;;;3.08;;
9880;SDS011;4979;51.014;6.678;2022-08-04T05:18:46;5.10;;;2.65;;
9880;SDS011;4979;51.014;6.678;2022-08-04T05:21:34;8.05;;;2.63;;
9880;SDS011;4979;51.014;6.678;2022-08-04T05:24:07;5.47;;;2.90;;
9880;SDS011;4979;51.014;6.678;2022-08-04T05:26:40;3.65;;;2.53;;
9880;SDS011;4979;51.014;6.678;2022-08-04T05:29:10;4.45;;;2.50;;
9880;SDS011;4979;51.014;6.678;2022-08-04T05:31:48;6.65;;;3.05;;
9880;SDS011;4979;51.014;6.678;2022-08-04T05:34:20;6.60;;;2.60;;
9880;SDS011;4979;51.014;6.678;2022-08-04T05:37:00;6.75;;;3.00;;
9880;SDS011;4979;51.014;6.678;2022-08-04T05:39:34;7.53;;;2.60;;
9880;SDS011;4979;51.014;6.678;2022-08-04T05:42:06;4.07;;;2.60;;
9880;SDS011;4979;51.014;6.678;2022-08-04T05:44:33;7.70;;;2.92;;
9880;SDS011;4979;51.014;6.678;2022-08-04T05:47:00;6.10;;;2.75;;
9880;SDS011;4979;51.014;6.678;2022-08-04T05:49:28;8.07;;;3.40;;
9880;SDS011;4979;51.014;6.678;2022-08-04T05:51:55;6.80;;;2.55;;
9880;SDS011;4979;51.014;6.678;2022-08-04T05:54:23;4.38;;;2.63;;
9880;SDS011;4979;51.014;6.678;2022-08-04T05:56:49;6.05;;;3.03;;
9880;SDS011;4979;51.014;6.678;2022-08-04T05:59:15;7.13;;;3.53;;
9880;SDS011;4979;51.014;6.678;2022-08-04T06:01:43;7.45;;;3.58;;
9880;SDS011;4979;51.014;6.678;2022-08-04T06:04:11;3.13;;;2.22;;
9880;SDS011;4979;51.014;6.678;2022-08-04T06:06:38;6.55;;;2.88;;
9880;SDS011;4979;51.014;6.678;2022-08-04T06:09:05;4.82;;;2.97;;
9880;SDS011;4979;51.014;6.678;2022-08-04T06:11:30;5.57;;;3.20;;
9880;SDS011;4979;51.014;6.678;2022-08-04T06:13:58;3.97;;;2.75;;
9880;SDS011;4979;51.014;6.678;2022-08-04T06:16:39;3.85;;;2.42;;
9880;SDS011;4979;51.014;6.678;2022-08-04T06:19:08;3.92;;;2.55;;
9880;SDS011;4979;51.014;6.678;2022-08-04T06:21:37;3.67;;;2.70;;
9880;SDS011;4979;51.014;6.678;2022-08-04T06:24:06;3.17;;;2.30;;
9880;SDS011;4979;51.014;6.678;2022-08-04T06:26:35;3.08;;;2.40;;
9880;SDS011;4979;51.014;6.678;2022-08-04T06:29:02;6.47;;;2.58;;
9880;SDS011;4979;51.014;6.678;2022-08-04T06:31:29;3.22;;;2.40;;
9880;SDS011;4979;51.014;6.678;2022-08-04T06:34:17;5.90;;;2.78;;
9880;SDS011;4979;51.014;6.678;2022-08-04T06:36:43;6.63;;;3.08;;
9880;SDS011;4979;51.014;6.678;2022-08-04T06:39:11;3.88;;;2.55;;
9880;SDS011;4979;51.014;6.678;2022-08-04T06:41:37;8.70;;;2.88;;
9880;SDS011;4979;51.014;6.678;2022-08-04T06:44:05;5.45;;;2.65;;
9880;SDS011;4979;51.014;6.678;2022-08-04T06:46:33;5.80;;;3.17;;
9880;SDS011;4979;51.014;6.678;2022-08-04T06:49:00;6.13;;;3.05;;
9880;SDS011;4979;51.014;6.678;2022-08-04T06:51:27;4.85;;;3.15;;
9880;SDS011;4979;51.014;6.678;2022-08-04T06:53:55;6.78;;;2.70;;
9880;SDS011;4979;51.014;6.678;2022-08-04T06:56:21;11.10;;;3.17;;
9880;SDS011;4979;51.014;6.678;2022-08-04T06:58:49;5.45;;;2.60;;
9880;SDS011;4979;51.014;6.678;2022-08-04T07:01:20;5.57;;;3.10;;
9880;SDS011;4979;51.014;6.678;2022-08-04T07:03:47;6.10;;;3.00;;
9880;SDS011;4979;51.014;6.678;2022-08-04T07:06:13;4.97;;;2.90;;
9880;SDS011;4979;51.014;6.678;2022-08-04T07:08:39;11.15;;;3.72;;
9880;SDS011;4979;51.014;6.678;2022-08-04T07:11:05;5.78;;;2.80;;
9880;SDS011;4979;51.014;6.678;2022-08-04T07:13:31;5.72;;;2.80;;
9880;SDS011;4979;51.014;6.678;2022-08-04T07:15:57;5.47;;;2.80;;
9880;SDS011;4979;51.014;6.678;2022-08-04T07:18:24;4.43;;;2.42;;
9880;SDS011;4979;51.014;6.678;2022-08-04T07:20:50;8.60;;;2.55;;
9880;SDS011;4979;51.014;6.678;2022-08-04T07:23:20;4.28;;;2.40;;
9880;SDS011;4979;51.014;6.678;2022-08-04T07:25:51;7.90;;;2.78;;
9880;SDS011;4979;51.014;6.678;2022-08-04T07:28:22;6.35;;;2.88;;
9880;SDS011;4979;51.014;6.678;2022-08-04T07:30:50;7.03;;;2.50;;
9880;SDS011;4979;51.014;6.678;2022-08-04T07:33:17;7.28;;;2.97;;
9880;SDS011;4979;51.014;6.678;2022-08-04T07:35:44;3.80;;;3.10;;
9880;SDS011;4979;51.014;6.678;2022-08-04T07:38:12;7.30;;;2.95;;
9880;SDS011;4979;51.014;6.678;2022-08-04T07:40:38;4.03;;;2.80;;
9880;SDS011;4979;51.014;6.678;2022-08-04T07:43:04;3.35;;;2.55;;
9880;SDS011;4979;51.014;6.678;2022-08-04T07:45:30;8.40;;;3.13;;
9880;SDS011;4979;51.014;6.678;2022-08-04T07:47:56;7.93;;;2.90;;
9880;SDS011;4979;51.014;6.678;2022-08-04T07:50:22;7.65;;;3.30;;
9880;SDS011;4979;51.014;6.678;2022-08-04T07:52:50;5.43;;;2.50;;
9880;SDS011;4979;51.014;6.678;2022-08-04T07:55:16;7.00;;;3.30;;
9880;SDS011;4979;51.014;6.678;2022-08-04T07:57:43;12.20;;;2.78;;
9880;SDS011;4979;51.014;6.678;2022-08-04T08:00:09;6.13;;;3.58;;
9880;SDS011;4979;51.014;6.678;2022-08-04T08:02:38;9.20;;;3.03;;
9880;SDS011;4979;51.014;6.678;2022-08-04T08:05:05;7.82;;;2.80;;
9880;SDS011;4979;51.014;6.678;2022-08-04T08:07:34;12.88;;;3.00;;
9880;SDS011;4979;51.014;6.678;2022-08-04T08:09:59;5.22;;;2.80;;
9880;SDS011;4979;51.014;6.678;2022-08-04T08:12:25;4.93;;;3.00;;
9880;SDS011;4979;51.014;6.678;2022-08-04T08:14:52;6.03;;;2.38;;
9880;SDS011;4979;51.014;6.678;2022-08-04T08:17:18;4.85;;;2.70;;
9880;SDS011;4979;51.014;6.678;2022-08-04T08:19:43;11.10;;;2.90;;
9880;SDS011;4979;51.014;6.678;2022-08-04T08:22:09;5.63;;;2.30;;
9880;SDS011;4979;51.014;6.678;2022-08-04T08:24:36;6.70;;;2.60;;
9880;SDS011;4979;51.014;6.678;2022-08-04T08:27:02;6.72;;;2.83;;
9880;SDS011;4979;51.014;6.678;2022-08-04T08:29:28;6.65;;;3.28;;
9880;SDS011;4979;51.014;6.678;2022-08-04T08:31:56;3.60;;;2.67;;
9880;SDS011;4979;51.014;6.678;2022-08-04T08:34:24;4.90;;;2.80;;
9880;SDS011;4979;51.014;6.678;2022-08-04T08:36:52;5.95;;;2.78;;
9880;SDS011;4979;51.014;6.678;2022-08-04T08:39:35;4.30;;;2.13;;
9880;SDS011;4979;51.014;6.678;2022-08-04T08:58:47;4.68;;;2.40;;
9880;SDS011;4979;51.014;6.678;2022-08-04T09:01:48;4.72;;;2.58;;
9880;SDS011;4979;51.014;6.678;2022-08-04T09:07:43;2.75;;;1.95;;
9880;SDS011;4979;51.014;6.678;2022-08-04T09:10:35;5.90;;;2.45;;
9880;SDS011;4979;51.014;6.678;2022-08-04T09:16:28;5.57;;;2.50;;
9880;SDS011;4979;51.014;6.678;2022-08-04T09:24:13;3.55;;;2.17;;
9880;SDS011;4979;51.014;6.678;2022-08-04T09:27:12;4.03;;;2.00;;
9880;SDS011;4979;51.014;6.678;2022-08-04T09:40:30;5.35;;;1.90;;
9880;SDS011;4979;51.014;6.678;2022-08-04T09:43:10;4.15;;;2.13;;
9880;SDS011;4979;51.014;6.678;2022-08-04T09:46:00;5.75;;;2.40;;
9880;SDS011;4979;51.014;6.678;2022-08-04T09:48:33;4.07;;;2.05;;
9880;SDS011;4979;51.014;6.678;2022-08-04T09:54:01;4.95;;;2.10;;
9880;SDS011;4979;51.014;6.678;2022-08-04T09:56:37;4.97;;;2.05;;
9880;SDS011;4979;51.014;6.678;2022-08-04T10:01:50;6.60;;;2.45;;
9880;SDS011;4979;51.014;6.678;2022-08-04T10:04:21;7.68;;;2.15;;
9880;SDS011;4979;51.014;6.678;2022-08-04T10:09:49;5.15;;;2.40;;
9880;SDS011;4979;51.014;6.678;2022-08-04T10:20:41;2.80;;;1.60;;
9880;SDS011;4979;51.014;6.678;2022-08-04T10:28:35;3.63;;;2.03;;
9880;SDS011;4979;51.014;6.678;2022-08-04T10:31:07;5.95;;;1.80;;
9880;SDS011;4979;51.014;6.678;2022-08-04T10:37:03;4.93;;;1.75;;
9880;SDS011;4979;51.014;6.678;2022-08-04T10:39:42;3.22;;;1.77;;
9880;SDS011;4979;51.014;6.678;2022-08-04T10:42:35;6.40;;;1.55;;
9880;SDS011;4979;51.014;6.678;2022-08-04T10:45:13;6.50;;;2.47;;
9880;SDS011;4979;51.014;6.678;2022-08-04T10:47:58;5.63;;;1.92;;
9880;SDS011;4979;51.014;6.678;2022-08-04T10:50:35;3.70;;;1.80;;
9880;SDS011;4979;51.014;6.678;2022-08-04T10:53:16;4.13;;;2.10;;
9880;SDS011;4979;51.014;6.678;2022-08-04T10:58:34;3.05;;;1.83;;
9880;SDS011;4979;51.014;6.678;2022-08-04T11:01:05;4.78;;;1.70;;
9880;SDS011;4979;51.014;6.678;2022-08-04T11:03:51;5.60;;;2.22;;
9880;SDS011;4979;51.014;6.678;2022-08-04T11:06:23;2.35;;;1.70;;
9880;SDS011;4979;51.014;6.678;2022-08-04T11:08:52;3.53;;;1.75;;
9880;SDS011;4979;51.014;6.678;2022-08-04T11:13:55;2.80;;;1.92;;
9880;SDS011;4979;51.014;6.678;2022-08-04T11:16:31;2.15;;;1.80;;
9880;SDS011;4979;51.014;6.678;2022-08-04T11:19:14;4.40;;;2.10;;
9880;SDS011;4979;51.014;6.678;2022-08-04T11:24:54;3.65;;;2.35;;
9880;SDS011;4979;51.014;6.678;2022-08-04T11:27:39;3.83;;;1.90;;
9880;SDS011;4979;51.014;6.678;2022-08-04T11:30:14;3.35;;;1.77;;
9880;SDS011;4979;51.014;6.678;2022-08-04T11:32:43;4.22;;;2.03;;
9880;SDS011;4979;51.014;6.678;2022-08-04T11:35:29;3.90;;;1.80;;
9880;SDS011;4979;51.014;6.678;2022-08-04T11:38:17;2.30;;;1.90;;
9880;SDS011;4979;51.014;6.678;2022-08-04T11:40:46;3.08;;;1.90;;
9880;SDS011;4979;51.014;6.678;2022-08-04T11:43:18;1.85;;;1.52;;
9880;SDS011;4979;51.014;6.678;2022-08-04T11:45:53;3.25;;;1.80;;
9880;SDS011;4979;51.014;6.678;2022-08-04T11:48:34;2.33;;;2.00;;
9880;SDS011;4979;51.014;6.678;2022-08-04T11:51:03;7.35;;;2.75;;
9880;SDS011;4979;51.014;6.678;2022-08-04T11:53:31;5.97;;;2.67;;
9880;SDS011;4979;51.014;6.678;2022-08-04T11:56:02;5.18;;;2.40;;
9880;SDS011;4979;51.014;6.678;2022-08-04T11:58:29;5.47;;;2.30;;
9880;SDS011;4979;51.014;6.678;2022-08-04T12:01:05;3.90;;;2.10;;
9880;SDS011;4979;51.014;6.678;2022-08-04T12:06:55;3.20;;;1.83;;
9880;SDS011;4979;51.014;6.678;2022-08-04T12:10:00;7.13;;;1.63;;
9880;SDS011;4979;51.014;6.678;2022-08-04T12:17:31;4.75;;;2.00;;
9880;SDS011;4979;51.014;6.678;2022-08-04T12:20:03;3.08;;;2.05;;
9880;SDS011;4979;51.014;6.678;2022-08-04T12:22:33;6.05;;;2.22;;
9880;SDS011;4979;51.014;6.678;2022-08-04T12:25:08;3.95;;;1.90;;
9880;SDS011;4979;51.014;6.678;2022-08-04T12:30:48;3.72;;;1.92;;
9880;SDS011;4979;51.014;6.678;2022-08-04T12:33:24;4.05;;;2.03;;
9880;SDS011;4979;51.014;6.678;2022-08-04T12:36:01;4.82;;;2.10;;
9880;SDS011;4979;51.014;6.678;2022-08-04T12:38:46;5.07;;;2.00;;
9880;SDS011;4979;51.014;6.678;2022-08-04T12:41:19;5.25;;;1.98;;
9880;SDS011;4979;51.014;6.678;2022-08-04T12:43:50;3.35;;;1.80;;
9880;SDS011;4979;51.014;6.678;2022-08-04T12:46:19;8.55;;;2.58;;
9880;SDS011;4979;51.014;6.678;2022-08-04T12:48:49;4.38;;;2.20;;
9880;SDS011;4979;51.014;6.678;2022-08-04T12:51:15;5.03;;;2.80;;
9880;SDS011;4979;51.014;6.678;2022-08-04T12:53:42;1.90;;;1.80;;
9880;SDS011;4979;51.014;6.678;2022-08-04T12:56:09;3.53;;;2.35;;
9880;SDS011;4979;51.014;6.678;2022-08-04T12:58:37;2.47;;;2.00;;
9880;SDS011;4979;51.014;6.678;2022-08-04T13:01:07;5.97;;;2.25;;
9880;SDS011;4979;51.014;6.678;2022-08-04T13:04:35;5.07;;;2.08;;
9880;SDS011;4979;51.014;6.678;2022-08-04T13:06:36;5.93;;;2.92;;
9880;SDS011;4979;51.014;6.678;2022-08-04T13:09:28;7.18;;;2.65;;
9880;SDS011;4979;51.014;6.678;2022-08-04T13:11:54;6.97;;;2.63;;
9880;SDS011;4979;51.014;6.678;2022-08-04T13:14:22;11.27;;;3.33;;
9880;SDS011;4979;51.014;6.678;2022-08-04T13:16:56;7.72;;;3.03;;
9880;SDS011;4979;51.014;6.678;2022-08-04T13:19:24;4.28;;;2.50;;
9880;SDS011;4979;51.014;6.678;2022-08-04T13:21:51;5.28;;;2.40;;
9880;SDS011;4979;51.014;6.678;2022-08-04T13:24:18;4.45;;;2.83;;
9880;SDS011;4979;51.014;6.678;2022-08-04T13:26:56;5.10;;;2.30;;
9880;SDS011;4979;51.014;6.678;2022-08-04T13:29:26;4.97;;;2.50;;
9880;SDS011;4979;51.014;6.678;2022-08-04T13:31:59;6.30;;;2.35;;
9880;SDS011;4979;51.014;6.678;2022-08-04T13:34:26;4.10;;;2.72;;
9880;SDS011;4979;51.014;6.678;2022-08-04T13:36:53;3.00;;;2.15;;
9880;SDS011;4979;51.014;6.678;2022-08-04T13:39:20;6.25;;;2.40;;
9880;SDS011;4979;51.014;6.678;2022-08-04T13:41:49;5.78;;;2.30;;
9880;SDS011;4979;51.014;6.678;2022-08-04T13:44:19;6.20;;;2.00;;
9880;SDS011;4979;51.014;6.678;2022-08-04T13:46:55;5.60;;;2.30;;
9880;SDS011;4979;51.014;6.678;2022-08-04T13:49:23;4.07;;;1.95;;
9880;SDS011;4979;51.014;6.678;2022-08-04T13:51:50;2.83;;;2.03;;
9880;SDS011;4979;51.014;6.678;2022-08-04T13:54:46;3.42;;;1.98;;
9880;SDS011;4979;51.014;6.678;2022-08-04T13:59:36;4.65;;;2.17;;
9880;SDS011;4979;51.014;6.678;2022-08-04T14:02:04;4.22;;;1.80;;
9880;SDS011;4979;51.014;6.678;2022-08-04T14:04:35;5.97;;;1.95;;
9880;SDS011;4979;51.014;6.678;2022-08-04T14:07:17;5.03;;;2.00;;
9880;SDS011;4979;51.014;6.678;2022-08-04T14:09:44;4.25;;;2.40;;
9880;SDS011;4979;51.014;6.678;2022-08-04T14:12:12;3.00;;;2.20;;
9880;SDS011;4979;51.014;6.678;2022-08-04T14:14:47;7.63;;;2.17;;
9880;SDS011;4979;51.014;6.678;2022-08-04T14:17:15;5.97;;;1.92;;
9880;SDS011;4979;51.014;6.678;2022-08-04T14:24:54;7.10;;;2.75;;
9880;SDS011;4979;51.014;6.678;2022-08-04T14:27:20;6.25;;;2.20;;
9880;SDS011;4979;51.014;6.678;2022-08-04T14:29:45;4.30;;;1.92;;
9880;SDS011;4979;51.014;6.678;2022-08-04T14:32:11;4.38;;;2.33;;
9880;SDS011;4979;51.014;6.678;2022-08-04T14:34:37;3.05;;;2.38;;
9880;SDS011;4979;51.014;6.678;2022-08-04T14:37:07;5.32;;;2.25;;
9880;SDS011;4979;51.014;6.678;2022-08-04T14:39:46;40.28;;;5.15;;
9880;SDS011;4979;51.014;6.678;2022-08-04T14:42:16;4.00;;;2.05;;
9880;SDS011;4979;51.014;6.678;2022-08-04T14:44:55;4.65;;;1.98;;
9880;SDS011;4979;51.014;6.678;2022-08-04T14:47:38;3.55;;;2.45;;
9880;SDS011;4979;51.014;6.678;2022-08-04T14:50:11;2.80;;;2.08;;
9880;SDS011;4979;51.014;6.678;2022-08-04T14:52:37;3.80;;;2.30;;
9880;SDS011;4979;51.014;6.678;2022-08-04T14:55:20;7.03;;;1.98;;
9880;SDS011;4979;51.014;6.678;2022-08-04T14:57:47;7.53;;;2.97;;
9880;SDS011;4979;51.014;6.678;2022-08-04T15:00:24;4.93;;;2.10;;
9880;SDS011;4979;51.014;6.678;2022-08-04T15:02:51;5.80;;;2.80;;
9880;SDS011;4979;51.014;6.678;2022-08-04T15:05:19;6.20;;;2.95;;
9880;SDS011;4979;51.014;6.678;2022-08-04T15:07:46;6.35;;;2.38;;
9880;SDS011;4979;51.014;6.678;2022-08-04T15:10:11;4.40;;;2.53;;
9880;SDS011;4979;51.014;6.678;2022-08-04T15:12:37;5.10;;;1.95;;
9880;SDS011;4979;51.014;6.678;2022-08-04T15:15:03;5.20;;;2.45;;
9880;SDS011;4979;51.014;6.678;2022-08-04T15:17:29;4.35;;;2.20;;
9880;SDS011;4979;51.014;6.678;2022-08-04T15:19:55;6.28;;;2.25;;
9880;SDS011;4979;51.014;6.678;2022-08-04T15:22:22;3.17;;;2.40;;
9880;SDS011;4979;51.014;6.678;2022-08-04T15:24:48;3.85;;;2.50;;
9880;SDS011;4979;51.014;6.678;2022-08-04T15:27:15;4.28;;;2.40;;
9880;SDS011;4979;51.014;6.678;2022-08-04T15:29:43;8.15;;;2.40;;
9880;SDS011;4979;51.014;6.678;2022-08-04T15:32:12;5.70;;;2.90;;
9880;SDS011;4979;51.014;6.678;2022-08-04T15:34:46;6.45;;;2.42;;
9880;SDS011;4979;51.014;6.678;2022-08-04T15:37:17;5.43;;;2.47;;
9880;SDS011;4979;51.014;6.678;2022-08-04T15:40:03;5.43;;;2.83;;
9880;SDS011;4979;51.014;6.678;2022-08-04T15:42:38;6.07;;;3.13;;
9880;SDS011;4979;51.014;6.678;2022-08-04T15:45:25;8.25;;;3.45;;
9880;SDS011;4979;51.014;6.678;2022-08-04T15:50:27;12.63;;;3.40;;
9880;SDS011;4979;51.014;6.678;2022-08-04T15:58:03;10.75;;;2.70;;
9880;SDS011;4979;51.014;6.678;2022-08-04T16:06:43;9.98;;;2.90;;
9880;SDS011;4979;51.014;6.678;2022-08-04T16:21:57;8.70;;;2.72;;
9880;SDS011;4979;51.014;6.678;2022-08-04T16:24:39;6.60;;;2.55;;
9880;SDS011;4979;51.014;6.678;2022-08-04T16:27:07;9.40;;;2.83;;
9880;SDS011;4979;51.014;6.678;2022-08-04T16:29:38;8.85;;;2.85;;
9880;SDS011;4979;51.014;6.678;2022-08-04T16:34:33;7.20;;;3.20;;
9880;SDS011;4979;51.014;6.678;2022-08-04T16:37:01;3.22;;;2.42;;
9880;SDS011;4979;51.014;6.678;2022-08-04T16:39:29;3.30;;;2.47;;
9880;SDS011;4979;51.014;6.678;2022-08-04T16:41:55;9.75;;;3.33;;
9880;SDS011;4979;51.014;6.678;2022-08-04T16:44:35;4.47;;;2.70;;
9880;SDS011;4979;51.014;6.678;2022-08-04T16:47:04;6.00;;;2.47;;
9880;SDS011;4979;51.014;6.678;2022-08-04T16:49:31;6.63;;;3.45;;
9880;SDS011;4979;51.014;6.678;2022-08-04T16:52:01;3.60;;;2.70;;
9880;SDS011;4979;51.014;6.678;2022-08-04T16:54:31;3.00;;;2.47;;
9880;SDS011;4979;51.014;6.678;2022-08-04T16:56:59;5.50;;;2.65;;
9880;SDS011;4979;51.014;6.678;2022-08-04T16:59:25;6.03;;;2.78;;
9880;SDS011;4979;51.014;6.678;2022-08-04T17:01:52;6.85;;;3.05;;
9880;SDS011;4979;51.014;6.678;2022-08-04T17:04:32;6.53;;;3.15;;
9880;SDS011;4979;51.014;6.678;2022-08-04T17:07:02;5.20;;;2.88;;
9880;SDS011;4979;51.014;6.678;2022-08-04T17:09:30;10.55;;;2.97;;
9880;SDS011;4979;51.014;6.678;2022-08-04T17:11:57;8.00;;;2.67;;
9880;SDS011;4979;51.014;6.678;2022-08-04T17:14:27;7.55;;;3.35;;
9880;SDS011;4979;51.014;6.678;2022-08-04T17:16:56;5.57;;;2.65;;
9880;SDS011;4979;51.014;6.678;2022-08-04T17:19:24;6.57;;;3.53;;
9880;SDS011;4979;51.014;6.678;2022-08-04T17:21:50;4.57;;;2.72;;
9880;SDS011;4979;51.014;6.678;2022-08-04T17:24:17;6.22;;;3.00;;
9880;SDS011;4979;51.014;6.678;2022-08-04T17:26:43;5.93;;;3.20;;
9880;SDS011;4979;51.014;6.678;2022-08-04T17:29:11;6.07;;;3.22;;
9880;SDS011;4979;51.014;6.678;2022-08-04T17:31:37;5.43;;;2.80;;
9880;SDS011;4979;51.014;6.678;2022-08-04T17:34:10;6.47;;;2.97;;
9880;SDS011;4979;51.014;6.678;2022-08-04T17:36:40;8.20;;;3.10;;
9880;SDS011;4979;51.014;6.678;2022-08-04T17:39:13;6.30;;;2.90;;
9880;SDS011;4979;51.014;6.678;2022-08-04T17:41:43;5.93;;;2.90;;
9880;SDS011;4979;51.014;6.678;2022-08-04T17:44:08;4.80;;;3.40;;
9880;SDS011;4979;51.014;6.678;2022-08-04T17:46:38;5.25;;;3.85;;
9880;SDS011;4979;51.014;6.678;2022-08-04T17:51:53;9.15;;;3.83;;
9880;SDS011;4979;51.014;6.678;2022-08-04T17:54:30;7.60;;;3.67;;
9880;SDS011;4979;51.014;6.678;2022-08-04T17:56:58;6.03;;;3.50;;
9880;SDS011;4979;51.014;6.678;2022-08-04T17:59:28;4.88;;;4.05;;
9880;SDS011;4979;51.014;6.678;2022-08-04T18:02:03;6.28;;;3.80;;
9880;SDS011;4979;51.014;6.678;2022-08-04T18:07:11;5.88;;;3.95;;
9880;SDS011;4979;51.014;6.678;2022-08-04T18:09:39;4.90;;;3.63;;
9880;SDS011;4979;51.014;6.678;2022-08-04T18:12:09;5.40;;;3.40;;
9880;SDS011;4979;51.014;6.678;2022-08-04T18:14:39;8.93;;;4.20;;
9880;SDS011;4979;51.014;6.678;2022-08-04T18:17:09;5.80;;;3.53;;
9880;SDS011;4979;51.014;6.678;2022-08-04T18:19:36;8.43;;;4.22;;
9880;SDS011;4979;51.014;6.678;2022-08-04T18:22:03;6.35;;;3.67;;
9880;SDS011;4979;51.014;6.678;2022-08-04T18:24:30;4.72;;;3.58;;
9880;SDS011;4979;51.014;6.678;2022-08-04T18:26:57;7.50;;;3.90;;
9880;SDS011;4979;51.014;6.678;2022-08-04T18:29:23;5.20;;;3.30;;
9880;SDS011;4979;51.014;6.678;2022-08-04T18:31:49;5.18;;;3.63;;
9880;SDS011;4979;51.014;6.678;2022-08-04T18:34:14;10.05;;;3.53;;
9880;SDS011;4979;51.014;6.678;2022-08-04T18:36:40;4.43;;;2.90;;
9880;SDS011;4979;51.014;6.678;2022-08-04T18:39:08;9.15;;;3.42;;
9880;SDS011;4979;51.014;6.678;2022-08-04T18:41:34;5.72;;;3.42;;
9880;SDS011;4979;51.014;6.678;2022-08-04T18:44:00;5.45;;;3.20;;
9880;SDS011;4979;51.014;6.678;2022-08-04T18:46:26;4.40;;;2.75;;
9880;SDS011;4979;51.014;6.678;2022-08-04T18:48:51;4.68;;;2.65;;
9880;SDS011;4979;51.014;6.678;2022-08-04T18:51:17;5.30;;;3.08;;
9880;SDS011;4979;51.014;6.678;2022-08-04T18:53:43;4.20;;;3.25;;
9880;SDS011;4979;51.014;6.678;2022-08-04T18:56:10;7.45;;;3.15;;
9880;SDS011;4979;51.014;6.678;2022-08-04T18:58:36;6.70;;;2.90;;
9880;SDS011;4979;51.014;6.678;2022-08-04T19:01:01;4.32;;;2.90;;
9880;SDS011;4979;51.014;6.678;2022-08-04T19:03:27;4.95;;;2.85;;
9880;SDS011;4979;51.014;6.678;2022-08-04T19:05:53;4.70;;;2.38;;
9880;SDS011;4979;51.014;6.678;2022-08-04T19:08:19;8.02;;;2.95;;
9880;SDS011;4979;51.014;6.678;2022-08-04T19:10:44;4.30;;;2.65;;
9880;SDS011;4979;51.014;6.678;2022-08-04T19:13:10;5.20;;;2.70;;
9880;SDS011;4979;51.014;6.678;2022-08-04T19:15:35;8.98;;;3.72;;
9880;SDS011;4979;51.014;6.678;2022-08-04T19:18:01;7.38;;;3.00;;
9880;SDS011;4979;51.014;6.678;2022-08-04T19:20:27;9.05;;;3.05;;
9880;SDS011;4979;51.014;6.678;2022-08-04T19:22:53;4.47;;;2.53;;
9880;SDS011;4979;51.014;6.678;2022-08-04T19:25:19;4.63;;;2.72;;
9880;SDS011;4979;51.014;6.678;2022-08-04T19:27:45;3.42;;;2.40;;
9880;SDS011;4979;51.014;6.678;2022-08-04T19:30:10;5.88;;;3.40;;
9880;SDS011;4979;51.014;6.678;2022-08-04T19:32:36;6.53;;;3.55;;
9880;SDS011;4979;51.014;6.678;2022-08-04T19:35:02;7.35;;;3.50;;
9880;SDS011;4979;51.014;6.678;2022-08-04T19:37:27;6.57;;;3.28;;
9880;SDS011;4979;51.014;6.678;2022-08-04T19:39:57;8.35;;;3.83;;
9880;SDS011;4979;51.014;6.678;2022-08-04T19:42:22;4.72;;;3.65;;
9880;SDS011;4979;51.014;6.678;2022-08-04T19:44:48;7.53;;;3.85;;
9880;SDS011;4979;51.014;6.678;2022-08-04T19:47:14;5.40;;;3.97;;
9880;SDS011;4979;51.014;6.678;2022-08-04T19:49:39;4.80;;;3.42;;
9880;SDS011;4979;51.014;6.678;2022-08-04T19:52:05;10.55;;;4.22;;
9880;SDS011;4979;51.014;6.678;2022-08-04T19:54:32;5.80;;;3.70;;